createdAt,value
2023-04-15T00:00:18.738Z,12.12
2023-04-15T00:02:51.563Z,12.09
2023-04-15T00:05:21.960Z,12.12
2023-04-15T00:07:52.060Z,12.13
2023-04-15T00:10:22.181Z,12.12
2023-04-15T00:12:52.641Z,12.02
2023-04-15T00:15:28.544Z,11.95
2023-04-15T00:17:58.761Z,11.96
2023-04-15T00:20:28.812Z,12.02
2023-04-15T00:22:59.636Z,11.97
2023-04-15T00:25:29.668Z,12.01
2023-04-15T00:28:09.763Z,12.04
2023-04-15T00:30:51.905Z,12.11
2023-04-15T00:33:22.238Z,12.16
2023-04-15T00:35:52.301Z,12.18
2023-04-15T00:38:22.529Z,12.12
2023-04-15T00:40:53.609Z,12.17
2023-04-15T00:43:23.828Z,12.18
2023-04-15T00:45:58.153Z,12.20
2023-04-15T00:48:29.344Z,12.13
2023-04-15T00:50:59.402Z,12.16
2023-04-15T00:53:29.527Z,12.26
2023-04-15T00:55:59.785Z,12.31
2023-04-15T00:58:30.986Z,12.33
2023-04-15T01:01:04.587Z,12.31
2023-04-15T01:03:35.045Z,12.30
2023-04-15T01:06:06.069Z,12.23
2023-04-15T01:08:36.467Z,12.17
2023-04-15T01:11:07.482Z,12.20
2023-04-15T01:13:39.033Z,12.20
2023-04-15T01:16:13.328Z,12.22
2023-04-15T01:18:44.224Z,12.19
2023-04-15T01:21:14.493Z,12.11
2023-04-15T01:23:44.629Z,12.08
2023-04-15T01:26:19.324Z,12.15
2023-04-15T01:28:49.591Z,12.20
2023-04-15T01:31:19.710Z,12.19
2023-04-15T01:33:49.952Z,12.18
2023-04-15T01:36:39.340Z,12.15
2023-04-15T01:39:09.554Z,12.10
2023-04-15T01:41:42.566Z,12.08
2023-04-15T01:44:14.191Z,12.05
2023-04-15T01:46:45.632Z,12.11
2023-04-15T01:49:17.176Z,12.17
2023-04-15T01:51:48.564Z,12.16
2023-04-15T01:54:19.928Z,12.16
2023-04-15T01:56:53.822Z,12.20
2023-04-15T01:59:25.934Z,12.19
2023-04-15T02:01:57.632Z,12.21
2023-04-15T02:04:32.097Z,12.28
2023-04-15T02:07:04.933Z,12.32
2023-04-15T02:09:36.406Z,12.33
2023-04-15T02:12:10.528Z,12.33
2023-04-15T02:14:41.946Z,12.30
2023-04-15T02:17:13.495Z,12.30
2023-04-15T02:19:46.932Z,12.29
2023-04-15T02:22:19.089Z,12.28
2023-04-15T02:24:51.563Z,12.29
2023-04-15T02:27:25.543Z,12.30
2023-04-15T02:29:56.961Z,12.26
2023-04-15T02:32:29.281Z,12.23
2023-04-15T02:35:06.146Z,12.25
2023-04-15T02:37:43.625Z,12.28
2023-04-15T02:40:16.471Z,12.28
2023-04-15T02:42:50.337Z,12.24
2023-04-15T02:45:26.124Z,12.24
2023-04-15T02:47:57.815Z,12.24
2023-04-15T02:50:31.824Z,12.30
2023-04-15T02:53:04.514Z,12.36
2023-04-15T02:55:36.030Z,12.33
2023-04-15T02:58:10.221Z,12.33
2023-04-15T03:00:42.028Z,12.37
2023-04-15T03:03:15.501Z,12.40
2023-04-15T03:05:47.694Z,12.40
2023-04-15T03:08:19.302Z,12.40
2023-04-15T03:10:52.520Z,12.43
2023-04-15T03:13:26.640Z,12.42
2023-04-15T03:15:59.478Z,12.37
2023-04-15T03:18:32.167Z,12.37
2023-04-15T03:21:07.531Z,12.36
2023-04-15T03:23:43.327Z,12.41
2023-04-15T03:26:27.296Z,12.44
2023-04-15T03:29:02.391Z,12.47
2023-04-15T03:31:34.144Z,12.47
2023-04-15T03:34:05.613Z,12.46
2023-04-15T03:36:37.149Z,12.50
2023-04-15T03:39:08.874Z,12.52
2023-04-15T03:41:40.176Z,12.56
2023-04-15T03:44:14.036Z,12.53
2023-04-15T03:46:45.518Z,12.55
2023-04-15T03:49:17.445Z,12.55
2023-04-15T03:51:48.916Z,12.59
2023-04-15T03:54:20.304Z,12.64
2023-04-15T03:56:51.671Z,12.66
2023-04-15T03:59:25.600Z,12.67
2023-04-15T04:01:57.216Z,12.71
2023-04-15T04:04:28.674Z,12.74
2023-04-15T04:07:00.278Z,12.71
2023-04-15T04:09:31.864Z,12.67
2023-04-15T04:12:04.417Z,12.67
2023-04-15T04:14:38.428Z,12.64
2023-04-15T04:17:09.837Z,12.62
2023-04-15T04:19:41.303Z,12.66
2023-04-15T04:22:12.699Z,12.72
2023-04-15T04:24:44.057Z,12.71
2023-04-15T04:27:15.681Z,12.68
2023-04-15T04:29:50.126Z,12.73
2023-04-15T04:32:21.990Z,12.75
2023-04-15T04:34:53.467Z,12.78
2023-04-15T04:37:24.905Z,12.76
2023-04-15T04:39:56.370Z,12.79
2023-04-15T04:42:27.902Z,12.83
2023-04-15T04:45:04.898Z,12.87
2023-04-15T04:47:36.511Z,12.85
2023-04-15T04:50:09.333Z,12.82
2023-04-15T04:52:41.333Z,12.81
2023-04-15T04:55:13.395Z,12.80
2023-04-15T04:57:45.051Z,12.84
2023-04-15T05:00:19.462Z,12.82
2023-04-15T05:02:51.084Z,12.87
2023-04-15T05:05:22.720Z,12.92
2023-04-15T05:07:54.026Z,12.90
2023-04-15T05:10:25.504Z,12.89
2023-04-15T05:12:56.931Z,12.94
2023-04-15T05:15:31.161Z,12.96
2023-04-15T05:18:02.567Z,13.01
2023-04-15T05:20:33.967Z,13.05
2023-04-15T05:23:05.442Z,13.05
2023-04-15T05:25:36.894Z,13.06
2023-04-15T05:28:09.532Z,13.06
2023-04-15T05:30:43.574Z,13.10
2023-04-15T05:33:15.039Z,13.11
2023-04-15T05:35:46.499Z,13.13
2023-04-15T05:38:18.010Z,13.17
2023-04-15T05:40:51.561Z,13.20
2023-04-15T05:43:31.578Z,13.17
2023-04-15T05:46:08.797Z,13.16
2023-04-15T05:48:45.158Z,13.19
2023-04-15T05:51:16.833Z,13.23
2023-04-15T05:53:53.459Z,13.27
2023-04-15T05:56:30.750Z,13.33
2023-04-15T05:59:14.219Z,13.36
2023-04-15T06:01:59.196Z,13.41
2023-04-15T06:04:36.599Z,13.52
2023-04-15T06:07:08.031Z,13.57
2023-04-15T06:09:40.732Z,13.62
2023-04-15T06:12:15.276Z,13.69
2023-04-15T06:14:48.937Z,13.71
2023-04-15T06:17:25.930Z,13.74
2023-04-15T06:20:01.152Z,13.83
2023-04-15T06:22:34.557Z,13.89
2023-04-15T06:25:14.926Z,13.97
2023-04-15T06:28:04.560Z,14.06
2023-04-15T06:30:38.588Z,14.08
2023-04-15T06:33:15.385Z,14.13
2023-04-15T06:35:52.120Z,14.17
2023-04-15T06:38:33.670Z,14.22
2023-04-15T06:41:08.076Z,14.22
2023-04-15T06:43:39.518Z,14.25
2023-04-15T06:46:14.415Z,14.20
2023-04-15T06:48:48.688Z,14.25
2023-04-15T06:51:20.049Z,14.35
2023-04-15T06:53:51.425Z,14.38
2023-04-15T06:56:23.545Z,14.36
2023-04-15T06:58:56.078Z,14.34
2023-04-15T07:01:27.819Z,14.33
2023-04-15T07:04:01.971Z,14.40
2023-04-15T07:06:34.053Z,14.51
2023-04-15T07:09:06.169Z,14.54
2023-04-15T07:11:37.943Z,14.58
2023-04-15T07:14:09.712Z,14.61
2023-04-15T07:16:42.288Z,14.61
2023-04-15T07:19:16.466Z,14.61
2023-04-15T07:21:48.226Z,14.56
2023-04-15T07:24:20.864Z,14.43
2023-04-15T07:26:52.463Z,14.31
2023-04-15T07:29:23.850Z,14.19
2023-04-15T07:31:56.819Z,14.07
2023-04-15T07:34:31.499Z,14.02
2023-04-15T07:37:03.960Z,13.91
2023-04-15T07:39:35.272Z,13.82
2023-04-15T07:42:08.927Z,13.69
2023-04-15T07:44:40.425Z,13.59
2023-04-15T07:47:12.045Z,13.56
2023-04-15T07:49:46.505Z,13.63
2023-04-15T07:52:17.952Z,13.66
2023-04-15T07:54:50.648Z,13.70
2023-04-15T07:57:22.105Z,13.70
2023-04-15T07:59:53.409Z,13.79
2023-04-15T08:02:25.477Z,13.87
2023-04-15T08:05:03.138Z,13.87
2023-04-15T08:07:34.777Z,13.89
2023-04-15T08:10:06.527Z,13.89
2023-04-15T08:12:37.907Z,13.87
2023-04-15T08:15:11.048Z,13.89
2023-04-15T08:17:42.575Z,13.99
2023-04-15T08:20:16.722Z,14.02
2023-04-15T08:22:52.121Z,14.01
2023-04-15T08:25:23.512Z,13.98
2023-04-15T08:27:54.813Z,13.93
2023-04-15T08:30:26.147Z,13.99
2023-04-15T08:32:59.340Z,13.99
2023-04-15T08:35:33.240Z,14.07
2023-04-15T08:38:08.252Z,14.16
2023-04-15T08:40:45.664Z,14.17
2023-04-15T08:43:27.101Z,14.12
2023-04-15T08:46:00.375Z,14.13
2023-04-15T08:48:35.269Z,14.16
2023-04-15T08:51:16.374Z,14.24
2023-04-15T08:53:49.315Z,14.23
2023-04-15T08:56:24.277Z,14.27
2023-04-15T08:58:59.262Z,14.29
2023-04-15T09:01:30.837Z,14.33
2023-04-15T09:04:03.027Z,14.34
2023-04-15T09:06:37.709Z,14.37
2023-04-15T09:09:09.186Z,14.50
2023-04-15T09:11:43.330Z,14.57
2023-04-15T09:14:18.531Z,14.56
2023-04-15T09:17:03.712Z,14.60
2023-04-15T09:19:36.645Z,14.64
2023-04-15T09:22:10.978Z,14.59
2023-04-15T09:24:43.608Z,14.51
2023-04-15T09:27:19.138Z,14.44
2023-04-15T09:29:53.802Z,14.40
2023-04-15T09:32:25.223Z,14.33
2023-04-15T09:34:56.840Z,14.38
2023-04-15T09:37:40.683Z,14.31
2023-04-15T09:40:13.095Z,14.33
2023-04-15T09:42:58.122Z,14.32
2023-04-15T09:45:30.090Z,14.29
2023-04-15T09:48:02.486Z,14.29
2023-04-15T09:50:33.802Z,14.26
2023-04-15T09:53:09.353Z,14.29
2023-04-15T09:55:41.178Z,14.24
2023-04-15T09:58:13.783Z,14.26
2023-04-15T10:00:57.075Z,14.32
2023-04-15T10:03:31.372Z,14.28
2023-04-15T10:06:03.832Z,14.24
2023-04-15T10:08:38.104Z,14.26
2023-04-15T10:11:10.423Z,14.23
2023-04-15T10:13:42.652Z,14.24
2023-04-15T10:16:18.629Z,14.23
2023-04-15T10:18:53.849Z,14.33
2023-04-15T10:21:25.562Z,14.45
2023-04-15T10:24:02.022Z,14.59
2023-04-15T10:26:34.029Z,14.65
2023-04-15T10:29:06.087Z,14.74
2023-04-15T10:31:38.784Z,14.78
2023-04-15T10:34:11.032Z,14.91
2023-04-15T10:36:42.587Z,15.01
2023-04-15T10:39:47.062Z,15.03
2023-04-15T10:42:22.779Z,15.03
2023-04-15T10:44:59.413Z,14.91
2023-04-15T10:47:31.310Z,14.82
2023-04-15T10:50:04.861Z,14.81
2023-04-15T10:52:43.728Z,14.83
2023-04-15T10:55:23.148Z,14.84
2023-04-15T10:57:58.814Z,14.80
2023-04-15T11:00:32.864Z,14.78
2023-04-15T11:03:10.464Z,14.75
2023-04-15T11:06:08.600Z,14.63
2023-04-15T11:09:06.094Z,14.60
2023-04-15T11:12:12.135Z,14.59
2023-04-15T11:14:44.497Z,14.63
2023-04-15T11:17:16.189Z,14.66
2023-04-15T11:19:48.066Z,14.63
2023-04-15T11:22:19.685Z,14.64
2023-04-15T11:24:52.140Z,14.64
2023-04-15T11:27:27.741Z,14.63
2023-04-15T11:29:59.052Z,14.59
2023-04-15T11:32:30.402Z,14.55
2023-04-15T11:35:01.693Z,14.54
2023-04-15T11:37:33.840Z,14.52
2023-04-15T11:40:06.392Z,14.51
2023-04-15T11:42:49.665Z,14.47
2023-04-15T11:45:21.573Z,14.45
2023-04-15T11:47:52.926Z,14.42
2023-04-15T11:50:26.060Z,14.37
2023-04-15T11:52:57.014Z,14.34
2023-04-15T11:55:27.639Z,14.38
2023-04-15T11:58:15.054Z,14.48
2023-04-15T12:00:50.670Z,14.53
2023-04-15T12:03:26.769Z,14.58
2023-04-15T12:06:07.386Z,14.72
2023-04-15T12:08:59.250Z,14.81
2023-04-15T12:11:40.731Z,14.88
2023-04-15T12:14:16.496Z,14.99
2023-04-15T12:16:50.419Z,15.09
2023-04-15T12:19:27.833Z,15.22
2023-04-15T12:22:05.827Z,15.23
2023-04-15T12:24:37.373Z,15.20
2023-04-15T12:27:08.828Z,15.17
2023-04-15T12:29:43.389Z,15.14
2023-04-15T12:32:15.137Z,15.06
2023-04-15T12:34:47.885Z,15.10
2023-04-15T12:37:18.449Z,15.16
2023-04-15T12:39:51.139Z,15.23
2023-04-15T12:42:25.980Z,15.26
2023-04-15T12:44:58.938Z,15.35
2023-04-15T12:47:29.245Z,15.40
2023-04-15T12:49:59.744Z,15.37
2023-04-15T12:52:30.110Z,15.40
2023-04-15T12:55:00.545Z,15.38
2023-04-15T12:57:30.639Z,15.43
2023-04-15T13:00:07.034Z,15.48
2023-04-15T13:02:37.215Z,15.54
2023-04-15T13:05:08.160Z,15.55
2023-04-15T13:07:38.392Z,15.56
2023-04-15T13:10:09.811Z,15.61
2023-04-15T13:12:39.930Z,15.57
2023-04-15T13:15:14.174Z,15.65
2023-04-15T13:17:44.483Z,15.81
2023-04-15T13:20:14.651Z,15.92
2023-04-15T13:22:44.777Z,15.98
2023-04-15T13:25:14.969Z,16.00
2023-04-15T13:27:45.052Z,15.94
2023-04-15T13:30:17.871Z,15.84
2023-04-15T13:32:49.374Z,15.83
2023-04-15T13:35:20.976Z,15.87
2023-04-15T13:37:51.269Z,15.85
2023-04-15T13:40:23.271Z,15.74
2023-04-15T13:42:54.847Z,15.64
2023-04-15T13:45:27.591Z,15.58
2023-04-15T13:47:59.095Z,15.52
2023-04-15T13:50:29.271Z,15.47
2023-04-15T13:52:59.556Z,15.42
2023-04-15T13:55:29.862Z,15.36
2023-04-15T13:58:00.161Z,15.36
2023-04-15T14:00:32.918Z,15.41
2023-04-15T14:03:03.220Z,15.42
2023-04-15T14:05:33.570Z,15.36
2023-04-15T14:08:04.160Z,15.38
2023-04-15T14:10:34.260Z,15.33
2023-04-15T14:13:04.308Z,15.25
2023-04-15T14:15:36.975Z,15.22
2023-04-15T14:18:07.215Z,15.17
2023-04-15T14:20:37.293Z,15.12
2023-04-15T14:23:07.869Z,15.15
2023-04-15T14:25:39.372Z,15.18
2023-04-15T14:28:09.506Z,15.18
2023-04-15T14:30:42.174Z,15.18
2023-04-15T14:33:12.176Z,15.24
2023-04-15T14:35:42.254Z,15.32
2023-04-15T14:38:12.434Z,15.35
2023-04-15T14:40:43.829Z,15.30
2023-04-15T14:43:13.884Z,15.24
2023-04-15T14:45:46.679Z,15.23
2023-04-15T14:48:16.834Z,15.21
2023-04-15T14:50:47.055Z,15.22
2023-04-15T14:53:17.315Z,15.21
2023-04-15T14:55:47.805Z,15.23
2023-04-15T14:58:17.918Z,15.29
2023-04-15T15:00:51.035Z,15.30
2023-04-15T15:03:21.414Z,15.29
2023-04-15T15:05:51.839Z,15.36
2023-04-15T15:08:22.064Z,15.40
2023-04-15T15:10:52.298Z,15.32
2023-04-15T15:13:22.585Z,15.28
2023-04-15T15:15:55.324Z,15.31
2023-04-15T15:18:25.870Z,15.41
2023-04-15T15:20:56.044Z,15.50
2023-04-15T15:23:26.163Z,15.59
2023-04-15T15:25:56.337Z,15.67
2023-04-15T15:28:26.434Z,15.74
2023-04-15T15:30:59.309Z,15.78
2023-04-15T15:33:30.333Z,15.75
2023-04-15T15:36:01.436Z,15.70
2023-04-15T15:38:31.623Z,15.68
2023-04-15T15:41:01.769Z,15.71
2023-04-15T15:43:31.937Z,15.73
2023-04-15T15:46:04.936Z,15.71
2023-04-15T15:48:35.156Z,15.64
2023-04-15T15:51:05.636Z,15.58
2023-04-15T15:53:36.062Z,15.54
2023-04-15T15:56:06.873Z,15.50
2023-04-15T15:58:37.015Z,15.47
2023-04-15T16:01:09.903Z,15.44
2023-04-15T16:03:40.401Z,15.39
2023-04-15T16:06:10.636Z,15.31
2023-04-15T16:08:43.726Z,15.29
2023-04-15T16:11:13.876Z,15.27
2023-04-15T16:13:43.873Z,15.30
2023-04-15T16:16:16.619Z,15.33
2023-04-15T16:18:46.835Z,15.31
2023-04-15T16:21:17.124Z,15.26
2023-04-15T16:23:47.185Z,15.20
2023-04-15T16:26:17.254Z,15.16
2023-04-15T16:28:47.407Z,15.12
2023-04-15T16:31:20.103Z,15.15
2023-04-15T16:33:50.218Z,15.16
2023-04-15T16:36:20.311Z,15.17
2023-04-15T16:38:50.545Z,15.15
2023-04-15T16:41:21.076Z,15.13
2023-04-15T16:43:51.384Z,15.15
2023-04-15T16:46:24.250Z,15.15
2023-04-15T16:48:54.540Z,15.14
2023-04-15T16:51:24.787Z,15.08
2023-04-15T16:53:58.231Z,15.07
2023-04-15T16:56:31.823Z,15.05
2023-04-15T16:59:02.373Z,15.07
2023-04-15T17:01:35.811Z,15.02
2023-04-15T17:04:06.251Z,14.98
2023-04-15T17:06:36.514Z,14.98
2023-04-15T17:09:07.107Z,14.98
2023-04-15T17:11:39.040Z,14.99
2023-04-15T17:14:10.071Z,14.97
2023-04-15T17:16:46.827Z,14.98
2023-04-15T17:19:17.070Z,14.97
2023-04-15T17:21:58.305Z,14.97
2023-04-15T17:24:28.958Z,14.93
2023-04-15T17:27:04.222Z,14.90
2023-04-15T17:29:37.754Z,14.90
2023-04-15T17:43:17.685Z,14.77
2023-04-15T17:46:09.292Z,14.75
2023-04-15T17:48:59.338Z,14.68
2023-04-15T17:51:49.314Z,14.68
2023-04-15T17:54:39.878Z,14.70
2023-04-15T17:57:30.347Z,14.67
2023-04-15T18:00:23.191Z,14.61
2023-04-15T18:03:13.386Z,14.56
2023-04-15T18:06:03.671Z,14.48
2023-04-15T18:08:54.689Z,14.49
2023-04-15T18:11:45.304Z,14.51
2023-04-15T18:14:35.352Z,14.53
2023-04-15T18:17:33.128Z,14.51
2023-04-15T18:20:20.608Z,14.52
2023-04-15T18:22:53.601Z,14.45
2023-04-15T18:25:31.966Z,14.44
2023-04-15T18:28:08.846Z,14.45
2023-04-15T18:30:42.519Z,14.39
2023-04-15T18:33:16.718Z,14.38
2023-04-15T18:36:04.228Z,14.42
2023-04-15T18:38:45.228Z,14.40
2023-04-15T18:41:18.416Z,14.34
2023-04-15T18:44:05.896Z,14.29
2023-04-15T18:46:44.363Z,14.22
2023-04-15T18:49:19.471Z,14.22
2023-04-15T18:51:52.585Z,14.26
2023-04-15T18:54:25.272Z,14.25
2023-04-15T18:57:09.352Z,14.18
2023-04-15T18:59:45.529Z,14.17
2023-04-15T19:02:17.458Z,14.15
2023-04-15T19:04:53.653Z,14.17
2023-04-15T19:07:31.143Z,14.12
2023-04-15T19:10:02.197Z,14.18
2023-04-15T19:12:40.606Z,14.19
2023-04-15T19:15:12.455Z,14.23
2023-04-15T19:17:48.967Z,14.19
2023-04-15T19:20:22.202Z,14.19
2023-04-15T19:22:58.442Z,14.24
2023-04-15T19:25:29.135Z,14.26
2023-04-15T19:28:00.133Z,14.25
2023-04-15T19:30:35.269Z,14.18
2023-04-15T19:33:21.705Z,14.20
2023-04-15T19:36:00.423Z,14.20
2023-04-15T19:38:32.264Z,14.22
2023-04-15T19:41:06.005Z,14.24
2023-04-15T19:43:37.303Z,14.20
2023-04-15T19:46:13.594Z,14.19
2023-04-15T19:48:44.027Z,14.23
2023-04-15T19:51:27.154Z,14.28
2023-04-15T19:54:01.148Z,14.28
2023-04-15T19:56:49.834Z,14.29
2023-04-15T19:59:33.591Z,14.32
2023-04-15T20:02:11.741Z,14.25
2023-04-15T20:04:57.712Z,14.25
2023-04-15T20:07:33.271Z,14.17
2023-04-15T20:10:33.255Z,14.16
2023-04-15T20:13:15.241Z,14.17
2023-04-15T20:15:48.522Z,14.18
2023-04-15T20:18:18.653Z,14.15
2023-04-15T20:20:48.912Z,14.14
2023-04-15T20:23:21.837Z,14.16
2023-04-15T20:25:52.068Z,14.20
2023-04-15T20:28:27.952Z,14.20
2023-04-15T20:30:59.501Z,14.20
2023-04-15T20:33:31.494Z,14.19
2023-04-15T20:36:04.154Z,14.16
2023-04-15T20:38:39.556Z,14.20
2023-04-15T20:41:16.550Z,14.20
2023-04-15T20:43:46.902Z,14.22
2023-04-15T20:46:21.416Z,14.23
2023-04-15T20:48:56.805Z,14.16
2023-04-15T20:51:43.550Z,14.17
2023-04-15T20:54:19.678Z,14.13
2023-04-15T20:57:01.945Z,14.09
2023-04-15T20:59:54.285Z,14.11
2023-04-15T21:02:45.154Z,14.08
2023-04-15T21:05:31.583Z,14.17
2023-04-15T21:08:24.019Z,14.16
2023-04-15T21:11:03.971Z,14.21
2023-04-15T21:13:37.540Z,14.20
2023-04-15T21:16:12.361Z,14.22
2023-04-15T21:18:50.025Z,14.24
2023-04-15T21:21:24.498Z,14.23
2023-04-15T21:24:07.856Z,14.21
2023-04-15T21:26:40.933Z,14.20
2023-04-15T21:29:18.047Z,14.19
2023-04-15T21:31:48.303Z,14.20
2023-04-15T21:34:38.475Z,14.17
2023-04-15T21:37:14.665Z,14.16
2023-04-15T21:39:55.959Z,14.15
2023-04-15T21:42:36.625Z,14.18
2023-04-15T21:45:16.736Z,14.21
2023-04-15T21:48:20.447Z,14.24
2023-04-15T21:50:52.568Z,14.23
2023-04-15T21:56:56.988Z,14.20
2023-04-15T21:59:30.602Z,14.23
2023-04-15T22:02:06.967Z,14.17
2023-04-15T22:08:12.694Z,14.15
2023-04-15T22:10:56.830Z,14.14
2023-04-15T22:13:39.887Z,14.16
2023-04-15T22:16:15.446Z,14.13
2023-04-15T22:18:50.381Z,14.10
2023-04-15T22:21:23.340Z,14.09
2023-04-15T22:24:38.762Z,14.05
2023-04-15T22:26:59.765Z,14.07
2023-04-15T22:29:33.742Z,14.04
2023-04-15T22:32:10.578Z,14.07
2023-04-15T22:34:54.603Z,14.10
2023-04-15T22:37:37.876Z,14.08
2023-04-15T22:40:11.962Z,14.13
2023-04-15T22:42:47.917Z,14.15
2023-04-15T22:45:21.501Z,14.14
2023-04-15T22:48:12.154Z,14.12
2023-04-15T22:51:10.812Z,14.15
2023-04-15T22:53:44.505Z,14.18
2023-04-15T22:56:15.894Z,14.17
2023-04-15T22:59:00.930Z,14.08
2023-04-15T23:01:37.414Z,14.03
2023-04-15T23:04:25.696Z,13.98
2023-04-15T23:07:00.601Z,14.03
2023-04-15T23:09:32.498Z,14.06
2023-04-15T23:12:05.967Z,14.08
2023-04-15T23:14:38.910Z,13.99
2023-04-15T23:17:18.782Z,13.97
2023-04-15T23:19:55.648Z,13.91
2023-04-15T23:22:32.459Z,13.94
2023-04-15T23:25:10.131Z,13.94
2023-04-15T23:27:45.997Z,13.96
2023-04-15T23:30:20.409Z,13.96
2023-04-15T23:32:57.504Z,14.01
2023-04-15T23:35:37.930Z,13.92
2023-04-15T23:38:10.809Z,13.94
2023-04-15T23:40:45.914Z,13.92
2023-04-15T23:43:18.722Z,13.88
2023-04-15T23:45:57.896Z,13.89
2023-04-15T23:48:42.465Z,13.91
2023-04-15T23:51:16.704Z,13.93
2023-04-15T23:53:54.155Z,13.98
2023-04-15T23:56:31.024Z,14.01
2023-04-15T23:59:14.436Z,14.03
